Terminal Aerodrome Forecast
Issued by NWS Chicago, IL

Home | Current Version | Previous Version | Graphics & Text | Print | Product List | Glossary On
Versions: 1 2 3 4 5 6 7 8 9 10 11 12 13 14 15 16 17 18 19 20 21 22 23 24 25 26 27 28 29
000
FTUS43 KLOT 220540
TAFRFD
TAF
KRFD 220540Z 2206/2306 21006KT P6SM SCT100 BKN250
     FM221200 20004KT 4SM BR SCT015 BKN250
     FM221400 21005KT P6SM SCT050
     FM222100 20008KT P6SM BKN040 PROB30 2221/2224 3SM TSRA
      OVC040CB=

USA.gov is the U.S. government's official web portal to all federal, state and local government web resources and services.